CES6711 ZJSY-ZBAD
Flight info
| Callsign | CES6711 |
|---|---|
| Flight time | N/A |
| Altitude | 37100 |
| Route | PORAP W222 NUMKU W223 AGTEL W71 LH/K0867S1100 R339 BHY W159 IVPUB/K0859S1130 W120 ENKUS DCT JW W2 PA/K0865S1100 W2 SJG/K0859S1130 W102 ZHJ/K0854S1160 W102 ENH/K0854S1130 W102 EMVIL W284 UPSIK W4 LIMGI W175 AVKES G212 BELAX |
| Aircraft | A20N/M-SDE2E3FGHIRWXY/LB1 |
Departure
| Time | N/A |
|---|---|
| Airport | Sanya Phoenix International Airport (ZJSY) |
Arrival
| Time | 2026-04-18 04:58 |
|---|---|
| Airport | Beijing Daxing International Airport (ZBAD) |
| Time | Latitude | Longitude | Altitude | Speed | Heading |
|---|---|---|---|---|---|
| 2026-04-18 04:02 | 35.72254 | 111.38773 | 37123 ft | 439 kts | 22° |
| 2026-04-18 04:02 | 35.77781 | 111.42049 | 37115 ft | 439 kts | 21° |
| 2026-04-18 04:03 | 35.83320 | 111.45335 | 37114 ft | 439 kts | 21° |
| 2026-04-18 04:03 | 35.88839 | 111.48614 | 37110 ft | 439 kts | 21° |
| 2026-04-18 04:04 | 35.94357 | 111.51899 | 37115 ft | 439 kts | 21° |
| 2026-04-18 04:04 | 35.98622 | 111.54439 | 37114 ft | 439 kts | 22° |
| 2026-04-18 04:05 | 36.04149 | 111.57739 | 37114 ft | 439 kts | 21° |
| 2026-04-18 04:05 | 36.09660 | 111.61032 | 37114 ft | 438 kts | 22° |
| 2026-04-18 04:06 | 36.15198 | 111.64349 | 37122 ft | 439 kts | 22° |
| 2026-04-18 04:06 | 36.20712 | 111.67653 | 37115 ft | 439 kts | 22° |
| 2026-04-18 04:07 | 36.26260 | 111.70985 | 37115 ft | 439 kts | 22° |
| 2026-04-18 04:07 | 36.31736 | 111.74282 | 37118 ft | 438 kts | 22° |
| 2026-04-18 04:08 | 36.37248 | 111.77603 | 37117 ft | 438 kts | 22° |
| 2026-04-18 04:08 | 36.42740 | 111.80919 | 37126 ft | 438 kts | 22° |
| 2026-04-18 04:09 | 36.48230 | 111.84238 | 37143 ft | 437 kts | 22° |
| 2026-04-18 04:09 | 36.53704 | 111.87554 | 37145 ft | 437 kts | 22° |
| 2026-04-18 04:10 | 36.59214 | 111.90900 | 37162 ft | 437 kts | 22° |
| 2026-04-18 04:10 | 36.64677 | 111.94223 | 37184 ft | 437 kts | 22° |
| 2026-04-18 04:11 | 36.70159 | 111.97591 | 37211 ft | 438 kts | 23° |
| 2026-04-18 04:11 | 36.75623 | 112.01007 | 37217 ft | 437 kts | 23° |
| 2026-04-18 04:12 | 36.81102 | 112.04440 | 37202 ft | 437 kts | 23° |
| 2026-04-18 04:12 | 36.86558 | 112.07866 | 37197 ft | 437 kts | 23° |
| 2026-04-18 04:13 | 36.92004 | 112.11288 | 37187 ft | 437 kts | 23° |
| 2026-04-18 04:13 | 36.97436 | 112.14707 | 37180 ft | 437 kts | 23° |
| 2026-04-18 04:14 | 37.02926 | 112.18174 | 37188 ft | 439 kts | 23° |
| 2026-04-18 04:14 | 37.08404 | 112.21638 | 37169 ft | 439 kts | 23° |
| 2026-04-18 04:15 | 37.13938 | 112.25015 | 37161 ft | 439 kts | 21° |
| 2026-04-18 04:15 | 37.19439 | 112.28236 | 37150 ft | 438 kts | 21° |
| 2026-04-18 04:16 | 37.24966 | 112.31496 | 37141 ft | 438 kts | 22° |
| 2026-04-18 04:16 | 37.30502 | 112.34781 | 37144 ft | 439 kts | 22° |
| 2026-04-18 04:17 | 37.36069 | 112.38095 | 37138 ft | 439 kts | 22° |
| 2026-04-18 04:17 | 37.41580 | 112.41386 | 37135 ft | 439 kts | 21° |
| 2026-04-18 04:18 | 37.47127 | 112.44709 | 37131 ft | 441 kts | 24° |
| 2026-04-18 04:18 | 37.52332 | 112.48890 | 37131 ft | 446 kts | 34° |
| 2026-04-18 04:19 | 37.56823 | 112.54406 | 37126 ft | 453 kts | 46° |
| 2026-04-18 04:19 | 37.60346 | 112.61028 | 37126 ft | 459 kts | 58° |
| 2026-04-18 04:20 | 37.63248 | 112.68254 | 37116 ft | 460 kts | 60° |
| 2026-04-18 04:20 | 37.66109 | 112.75473 | 37121 ft | 460 kts | 59° |
| 2026-04-18 04:21 | 37.69001 | 112.82733 | 37132 ft | 460 kts | 59° |
| 2026-04-18 04:21 | 37.71890 | 112.89988 | 37141 ft | 461 kts | 59° |
| 2026-04-18 04:22 | 37.74770 | 112.97208 | 37139 ft | 461 kts | 59° |
| 2026-04-18 04:22 | 37.77655 | 113.04466 | 37134 ft | 462 kts | 60° |
| 2026-04-18 04:23 | 37.80552 | 113.11788 | 36937 ft | 463 kts | 60° |
| 2026-04-18 04:23 | 37.81992 | 113.15439 | 36655 ft | 461 kts | 60° |
| 2026-04-18 04:23 | 37.83419 | 113.19062 | 36389 ft | 458 kts | 60° |
| 2026-04-18 04:23 | 37.84839 | 113.22672 | 36177 ft | 455 kts | 60° |
| 2026-04-18 04:24 | 37.86258 | 113.26280 | 35941 ft | 453 kts | 60° |
| 2026-04-18 04:24 | 37.87656 | 113.29837 | 35722 ft | 453 kts | 60° |
| 2026-04-18 04:24 | 37.89061 | 113.33415 | 35500 ft | 453 kts | 60° |
| 2026-04-18 04:24 | 37.90466 | 113.37002 | 35271 ft | 453 kts | 60° |
| 2026-04-18 04:25 | 37.91849 | 113.40542 | 35046 ft | 453 kts | 60° |
| 2026-04-18 04:25 | 37.93255 | 113.44140 | 34819 ft | 454 kts | 60° |
| 2026-04-18 04:25 | 37.94664 | 113.47746 | 34584 ft | 454 kts | 60° |
| 2026-04-18 04:25 | 37.96075 | 113.51361 | 34312 ft | 455 kts | 60° |
| 2026-04-18 04:26 | 37.97487 | 113.54980 | 34040 ft | 455 kts | 60° |
| 2026-04-18 04:26 | 37.98881 | 113.58563 | 33772 ft | 456 kts | 60° |
| 2026-04-18 04:26 | 38.00288 | 113.62186 | 33500 ft | 456 kts | 61° |
| 2026-04-18 04:26 | 38.01705 | 113.65846 | 33228 ft | 457 kts | 62° |
| 2026-04-18 04:27 | 38.03103 | 113.69460 | 32958 ft | 458 kts | 62° |
| 2026-04-18 04:27 | 38.04500 | 113.73080 | 32690 ft | 460 kts | 62° |
| 2026-04-18 04:27 | 38.05917 | 113.76756 | 32417 ft | 460 kts | 62° |
| 2026-04-18 04:27 | 38.07326 | 113.80415 | 32147 ft | 461 kts | 62° |
| 2026-04-18 04:28 | 38.08721 | 113.84040 | 31882 ft | 462 kts | 62° |
| 2026-04-18 04:28 | 38.10131 | 113.87713 | 31612 ft | 463 kts | 62° |
| 2026-04-18 04:28 | 38.11562 | 113.91446 | 31340 ft | 464 kts | 62° |
| 2026-04-18 04:28 | 38.12970 | 113.95122 | 31071 ft | 465 kts | 62° |
| 2026-04-18 04:29 | 38.14389 | 113.98834 | 30802 ft | 465 kts | 62° |
| 2026-04-18 04:29 | 38.15796 | 114.02526 | 30535 ft | 465 kts | 62° |
| 2026-04-18 04:29 | 38.17211 | 114.06237 | 30266 ft | 465 kts | 62° |
| 2026-04-18 04:30 | 38.18980 | 114.10887 | 29908 ft | 465 kts | 62° |
| 2026-04-18 04:30 | 38.20404 | 114.14598 | 29634 ft | 466 kts | 62° |
| 2026-04-18 04:30 | 38.21839 | 114.18327 | 29360 ft | 467 kts | 62° |
| 2026-04-18 04:30 | 38.23277 | 114.22070 | 29088 ft | 468 kts | 62° |
| 2026-04-18 04:31 | 38.24691 | 114.25764 | 28829 ft | 470 kts | 62° |
| 2026-04-18 04:31 | 38.26124 | 114.29514 | 28570 ft | 470 kts | 62° |
| 2026-04-18 04:31 | 38.27552 | 114.33263 | 28316 ft | 471 kts | 63° |
| 2026-04-18 04:31 | 38.28994 | 114.37051 | 28057 ft | 472 kts | 63° |
| 2026-04-18 04:32 | 38.30422 | 114.40810 | 27794 ft | 473 kts | 63° |
| 2026-04-18 04:32 | 38.31851 | 114.44579 | 27528 ft | 473 kts | 63° |
| 2026-04-18 04:32 | 38.33272 | 114.48334 | 27263 ft | 471 kts | 63° |
| 2026-04-18 04:32 | 38.34680 | 114.52059 | 27000 ft | 469 kts | 63° |
| 2026-04-18 04:33 | 38.36109 | 114.55843 | 26726 ft | 468 kts | 63° |
| 2026-04-18 04:33 | 38.37523 | 114.59592 | 26519 ft | 466 kts | 63° |
| 2026-04-18 04:33 | 38.38927 | 114.63324 | 26507 ft | 466 kts | 63° |
| 2026-04-18 04:33 | 38.40335 | 114.67065 | 26346 ft | 466 kts | 63° |
| 2026-04-18 04:34 | 38.41737 | 114.70796 | 26079 ft | 464 kts | 63° |
| 2026-04-18 04:34 | 38.43119 | 114.74486 | 25783 ft | 459 kts | 64° |
| 2026-04-18 04:34 | 38.44491 | 114.78155 | 25192 ft | 456 kts | 64° |
| 2026-04-18 04:34 | 38.45861 | 114.81804 | 24437 ft | 454 kts | 64° |
| 2026-04-18 04:35 | 38.47208 | 114.85395 | 23756 ft | 451 kts | 64° |
| 2026-04-18 04:35 | 38.48562 | 114.89017 | 23108 ft | 447 kts | 64° |
| 2026-04-18 04:35 | 38.49895 | 114.92593 | 22482 ft | 442 kts | 64° |
| 2026-04-18 04:35 | 38.51195 | 114.96087 | 21872 ft | 438 kts | 64° |
| 2026-04-18 04:36 | 38.52504 | 114.99613 | 21238 ft | 435 kts | 64° |
| 2026-04-18 04:36 | 38.53789 | 115.03076 | 20603 ft | 432 kts | 64° |
| 2026-04-18 04:36 | 38.55076 | 115.06542 | 19996 ft | 428 kts | 64° |
| 2026-04-18 04:36 | 38.56362 | 115.10014 | 19391 ft | 424 kts | 64° |
| 2026-04-18 04:37 | 38.57610 | 115.13405 | 18788 ft | 421 kts | 64° |
| 2026-04-18 04:37 | 38.58855 | 115.16797 | 18183 ft | 418 kts | 64° |
| 2026-04-18 04:37 | 38.60088 | 115.20156 | 17589 ft | 414 kts | 64° |
| 2026-04-18 04:37 | 38.61315 | 115.23495 | 16993 ft | 411 kts | 64° |
| 2026-04-18 04:38 | 38.62529 | 115.26780 | 16429 ft | 408 kts | 64° |
| 2026-04-18 04:38 | 38.63742 | 115.30062 | 15857 ft | 405 kts | 64° |
| 2026-04-18 04:38 | 38.64936 | 115.33307 | 15267 ft | 402 kts | 65° |
| 2026-04-18 04:38 | 38.66105 | 115.36491 | 14697 ft | 399 kts | 65° |
| 2026-04-18 04:39 | 38.67277 | 115.39690 | 14138 ft | 396 kts | 65° |
| 2026-04-18 04:39 | 38.68447 | 115.42889 | 13589 ft | 393 kts | 65° |
| 2026-04-18 04:39 | 38.69596 | 115.46034 | 13019 ft | 391 kts | 65° |
| 2026-04-18 04:39 | 38.70763 | 115.49225 | 12458 ft | 389 kts | 66° |
| 2026-04-18 04:40 | 38.71942 | 115.52309 | 12123 ft | 385 kts | 63° |
| 2026-04-18 04:40 | 38.73253 | 115.55321 | 11874 ft | 386 kts | 60° |
| 2026-04-18 04:40 | 38.74638 | 115.58318 | 11625 ft | 385 kts | 60° |
| 2026-04-18 04:40 | 38.76009 | 115.61261 | 11385 ft | 384 kts | 60° |
| 2026-04-18 04:41 | 38.77374 | 115.64195 | 11136 ft | 383 kts | 60° |
| 2026-04-18 04:41 | 38.78737 | 115.67132 | 10890 ft | 381 kts | 61° |
| 2026-04-18 04:41 | 38.80086 | 115.70047 | 10653 ft | 378 kts | 62° |
| 2026-04-18 04:41 | 38.81417 | 115.72926 | 10295 ft | 368 kts | 62° |
| 2026-04-18 04:42 | 38.82699 | 115.75698 | 10016 ft | 352 kts | 62° |
| 2026-04-18 04:42 | 38.83929 | 115.78362 | 9822 ft | 334 kts | 62° |
| 2026-04-18 04:42 | 38.85083 | 115.80866 | 9693 ft | 316 kts | 63° |
| 2026-04-18 04:42 | 38.86170 | 115.83230 | 9572 ft | 305 kts | 63° |
| 2026-04-18 04:43 | 38.87246 | 115.85580 | 9451 ft | 305 kts | 63° |
| 2026-04-18 04:43 | 38.88322 | 115.87935 | 9329 ft | 305 kts | 63° |
| 2026-04-18 04:43 | 38.89400 | 115.90291 | 9208 ft | 305 kts | 63° |
| 2026-04-18 04:43 | 38.90475 | 115.92635 | 9008 ft | 301 kts | 63° |
| 2026-04-18 04:44 | 38.91539 | 115.94962 | 8616 ft | 301 kts | 63° |
| 2026-04-18 04:44 | 38.92592 | 115.97264 | 8241 ft | 300 kts | 63° |
| 2026-04-18 04:44 | 38.93638 | 115.99552 | 7888 ft | 298 kts | 63° |
| 2026-04-18 04:44 | 38.94698 | 116.01869 | 7524 ft | 296 kts | 62° |
| 2026-04-18 04:45 | 38.95734 | 116.04138 | 7167 ft | 295 kts | 62° |
| 2026-04-18 04:45 | 38.96769 | 116.06404 | 6871 ft | 292 kts | 62° |
| 2026-04-18 04:45 | 38.97938 | 116.08604 | 6826 ft | 297 kts | 50° |
| 2026-04-18 04:45 | 38.99477 | 116.10392 | 6827 ft | 299 kts | 35° |
| 2026-04-18 04:46 | 39.01246 | 116.11826 | 6792 ft | 300 kts | 31° |
| 2026-04-18 04:46 | 39.03055 | 116.13180 | 6671 ft | 297 kts | 30° |
| 2026-04-18 04:46 | 39.04841 | 116.14516 | 6476 ft | 289 kts | 31° |
| 2026-04-18 04:46 | 39.06530 | 116.15801 | 6347 ft | 275 kts | 32° |
| 2026-04-18 04:47 | 39.07940 | 116.17342 | 6197 ft | 260 kts | 61° |
| 2026-04-18 04:47 | 39.08471 | 116.19509 | 6087 ft | 254 kts | 89° |
| 2026-04-18 04:47 | 39.08611 | 116.21776 | 5969 ft | 253 kts | 89° |
| 2026-04-18 04:47 | 39.08769 | 116.24058 | 5846 ft | 253 kts | 88° |
| 2026-04-18 04:48 | 39.08949 | 116.26293 | 5724 ft | 252 kts | 87° |
| 2026-04-18 04:48 | 39.09148 | 116.28554 | 5602 ft | 252 kts | 87° |
| 2026-04-18 04:48 | 39.09356 | 116.30792 | 5483 ft | 252 kts | 86° |
| 2026-04-18 04:48 | 39.09565 | 116.33024 | 5362 ft | 251 kts | 86° |
| 2026-04-18 04:49 | 39.09777 | 116.35259 | 5240 ft | 251 kts | 86° |
| 2026-04-18 04:49 | 39.09991 | 116.37504 | 5121 ft | 251 kts | 86° |
| 2026-04-18 04:49 | 39.10204 | 116.39744 | 4909 ft | 249 kts | 86° |
| 2026-04-18 04:49 | 39.10410 | 116.41920 | 4590 ft | 249 kts | 86° |
| 2026-04-18 04:50 | 39.10622 | 116.44164 | 4290 ft | 248 kts | 86° |
| 2026-04-18 04:50 | 39.10994 | 116.46348 | 3960 ft | 252 kts | 65° |
| 2026-04-18 04:50 | 39.12127 | 116.48083 | 3646 ft | 254 kts | 33° |
| 2026-04-18 04:50 | 39.13754 | 116.48854 | 3341 ft | 251 kts | 1° |
| 2026-04-18 04:51 | 39.15485 | 116.48617 | 3061 ft | 246 kts | 345° |
| 2026-04-18 04:51 | 39.17143 | 116.48151 | 2955 ft | 246 kts | 345° |
| 2026-04-18 04:51 | 39.18839 | 116.47718 | 2950 ft | 248 kts | 347° |
| 2026-04-18 04:51 | 39.20550 | 116.47353 | 2948 ft | 248 kts | 349° |
| 2026-04-18 04:52 | 39.22275 | 116.47037 | 2947 ft | 248 kts | 350° |
| 2026-04-18 04:52 | 39.23989 | 116.46752 | 2953 ft | 248 kts | 351° |
| 2026-04-18 04:52 | 39.25711 | 116.46481 | 2953 ft | 247 kts | 351° |
| 2026-04-18 04:52 | 39.27420 | 116.46218 | 2954 ft | 238 kts | 351° |
| 2026-04-18 04:53 | 39.29022 | 116.45973 | 2943 ft | 225 kts | 351° |
| 2026-04-18 04:53 | 39.30526 | 116.45741 | 3064 ft | 211 kts | 351° |
| 2026-04-18 04:53 | 39.31324 | 116.45618 | 3023 ft | 204 kts | 351° |
| 2026-04-18 04:53 | 39.32700 | 116.45403 | 2832 ft | 197 kts | 351° |
| 2026-04-18 04:54 | 39.34065 | 116.45187 | 2572 ft | 193 kts | 351° |
| 2026-04-18 04:54 | 39.35374 | 116.44982 | 2321 ft | 186 kts | 351° |
| 2026-04-18 04:54 | 39.36608 | 116.44790 | 2071 ft | 174 kts | 351° |
| 2026-04-18 04:54 | 39.37788 | 116.44604 | 1890 ft | 163 kts | 351° |
| 2026-04-18 04:55 | 39.38892 | 116.44431 | 1667 ft | 155 kts | 351° |
| 2026-04-18 04:55 | 39.39006 | 116.44413 | 1646 ft | 155 kts | 351° |
| 2026-04-18 04:55 | 39.39727 | 116.44299 | 1517 ft | 154 kts | 351° |
| 2026-04-18 04:56 | 39.41837 | 116.43977 | 1122 ft | 150 kts | 352° |
| 2026-04-18 04:56 | 39.42876 | 116.43806 | 902 ft | 148 kts | 352° |
| 2026-04-18 04:56 | 39.43899 | 116.43638 | 727 ft | 146 kts | 353° |
| 2026-04-18 04:56 | 39.44911 | 116.43487 | 545 ft | 145 kts | 352° |
| 2026-04-18 04:57 | 39.45901 | 116.43330 | 352 ft | 143 kts | 353° |
| 2026-04-18 04:57 | 39.46888 | 116.43169 | 173 ft | 141 kts | 353° |
| 2026-04-18 04:57 | 39.47822 | 116.43023 | 90 ft | 120 kts | 353° |
| 2026-04-18 04:57 | 39.48487 | 116.42911 | 90 ft | 70 kts | 351° |
| 2026-04-18 04:58 | 39.48842 | 116.42809 | 90 ft | 45 kts | 331° |
| 2026-04-18 04:58 | 39.49048 | 116.42635 | 90 ft | 27 kts | 326° |
| 2026-04-18 04:58 | 39.49134 | 116.42484 | 90 ft | 12 kts | 340° |
| 2026-04-18 04:58 | 39.49175 | 116.42484 | 90 ft | 5 kts | 344° |
| 2026-04-18 04:59 | 39.49216 | 116.42469 | 90 ft | 6 kts | 345° |
| 2026-04-18 04:59 | 39.49268 | 116.42458 | 90 ft | 8 kts | 352° |
| 2026-04-18 04:59 | 39.49329 | 116.42448 | 90 ft | 9 kts | 352° |
| 2026-04-18 04:59 | 39.49390 | 116.42417 | 90 ft | 9 kts | 329° |
| 2026-04-18 05:00 | 39.49454 | 116.42368 | 90 ft | 11 kts | 329° |
| 2026-04-18 05:00 | 39.49518 | 116.42313 | 90 ft | 11 kts | 332° |
| 2026-04-18 05:00 | 39.49602 | 116.42291 | 90 ft | 12 kts | 353° |
| 2026-04-18 05:00 | 39.49692 | 116.42278 | 90 ft | 13 kts | 352° |
| 2026-04-18 05:01 | 39.49786 | 116.42262 | 90 ft | 14 kts | 353° |
| 2026-04-18 05:01 | 39.49887 | 116.42248 | 90 ft | 14 kts | 353° |
| 2026-04-18 05:01 | 39.49987 | 116.42231 | 90 ft | 14 kts | 352° |
| 2026-04-18 05:01 | 39.50091 | 116.42215 | 90 ft | 15 kts | 353° |
| 2026-04-18 05:02 | 39.50185 | 116.42199 | 90 ft | 8 kts | 348° |
| 2026-04-18 05:02 | 39.50250 | 116.42187 | 90 ft | 9 kts | 342° |
| 2026-04-18 05:02 | 39.50288 | 116.42116 | 90 ft | 10 kts | 265° |
| 2026-04-18 05:02 | 39.50279 | 116.42018 | 90 ft | 10 kts | 263° |
| 2026-04-18 05:03 | 39.50269 | 116.41917 | 90 ft | 11 kts | 263° |
| 2026-04-18 05:03 | 39.50262 | 116.41834 | 90 ft | 5 kts | 275° |
| 2026-04-18 05:03 | 39.50292 | 116.41797 | 90 ft | 7 kts | 350° |
| 2026-04-18 05:03 | 39.50337 | 116.41788 | 90 ft | 6 kts | 352° |
| 2026-04-18 05:04 | 39.50375 | 116.41791 | 90 ft | 4 kts | 57° |
| 2026-04-18 05:04 | 39.50382 | 116.41821 | 90 ft | 0 kts | 81° |
| 2026-04-18 05:04 | 39.50383 | 116.41829 | 90 ft | 0 kts | 82° |
| 2026-04-18 05:04 | 39.50384 | 116.41841 | 90 ft | 2 kts | 82° |
| 2026-04-18 05:05 | 39.50385 | 116.41849 | 90 ft | 0 kts | 82° |
| 2026-04-18 05:05 | 39.50386 | 116.41856 | 90 ft | 1 kts | 82° |
| 2026-04-18 05:05 | 39.50386 | 116.41858 | 90 ft | 0 kts | 82° |